Time;durP1;ratioP1;P1;durP2;ratioP2;P2;SDS_P1;SDS_P2;PMS_P1;PMS_P2;Temp;Humidity;BMP_temperature;BMP_pressure;BME280_temperature;BME280_humidity;BME280_pressure;Samples;Min_cycle;Max_cycle;Signal;HPM_P1;HPM_P2
2021/01/19 00:01:12;;;;;;;7.53;3.83;;;3.30;99.90;;;;;;4071217;29;20477;-55
2021/01/19 00:03:13;;;;;;;7.67;3.80;;;3.30;99.90;;;;;;4073071;29;20505;-55
2021/01/19 00:05:15;;;;;;;7.77;4.03;;;3.40;99.90;;;;;;4070837;29;20496;-56
2021/01/19 00:07:17;;;;;;;7.20;4.43;;;3.40;99.90;;;;;;4072208;29;20473;-55
2021/01/19 00:09:19;;;;;;;8.60;4.57;;;3.40;99.90;;;;;;4070850;29;20513;-56
2021/01/19 00:11:20;;;;;;;12.23;4.47;;;3.40;99.90;;;;;;4069848;29;22358;-55
2021/01/19 00:13:21;;;;;;;7.27;4.63;;;3.40;99.90;;;;;;4072425;29;20889;-55
2021/01/19 00:15:22;;;;;;;9.83;4.70;;;3.50;99.90;;;;;;4071573;29;20476;-55
2021/01/19 00:17:24;;;;;;;9.57;4.23;;;3.50;99.90;;;;;;4071685;29;20977;-55
2021/01/19 00:19:25;;;;;;;9.90;4.50;;;3.50;99.90;;;;;;4072962;29;20667;-55
2021/01/19 00:21:26;;;;;;;11.03;4.50;;;3.50;99.90;;;;;;4071765;29;20472;-55
2021/01/19 00:23:29;;;;;;;12.80;4.53;;;3.50;99.90;;;;;;4071377;29;20486;-55
2021/01/19 00:25:30;;;;;;;8.10;4.33;;;3.50;99.90;;;;;;4072866;29;20481;-59
2021/01/19 00:27:31;;;;;;;12.07;4.60;;;3.50;99.90;;;;;;4070443;29;20829;-56
2021/01/19 00:29:33;;;;;;;9.13;4.47;;;3.50;99.90;;;;;;4072806;29;20478;-55
2021/01/19 00:31:34;;;;;;;11.90;4.13;;;3.60;99.90;;;;;;4071498;29;20470;-55
2021/01/19 00:33:35;;;;;;;12.87;5.03;;;3.60;99.90;;;;;;4069974;29;20477;-55
2021/01/19 00:35:37;;;;;;;10.10;4.90;;;3.60;99.90;;;;;;4071604;29;20475;-55
2021/01/19 00:37:38;;;;;;;9.07;4.40;;;3.60;99.90;;;;;;4072726;29;20505;-55
2021/01/19 00:39:41;;;;;;;9.03;4.43;;;3.60;99.90;;;;;;4071746;29;20974;-55
2021/01/19 00:41:42;;;;;;;12.50;4.33;;;3.70;99.90;;;;;;4071193;29;20513;-56
2021/01/19 00:43:43;;;;;;;15.90;6.00;;;3.70;99.90;;;;;;4072636;29;20481;-55
2021/01/19 00:45:45;;;;;;;10.30;4.50;;;3.70;99.90;;;;;;4072784;29;20473;-55
2021/01/19 00:47:46;;;;;;;8.00;4.00;;;3.70;99.90;;;;;;4072619;29;20485;-55
2021/01/19 00:49:47;;;;;;;14.60;4.63;;;3.70;99.90;;;;;;4071759;29;20483;-55
2021/01/19 00:51:49;;;;;;;13.30;4.33;;;3.70;99.90;;;;;;4071152;29;20520;-59
2021/01/19 00:53:50;;;;;;;10.20;3.80;;;3.70;99.90;;;;;;4071615;29;20993;-59
2021/01/19 00:55:52;;;;;;;11.77;4.57;;;3.70;99.90;;;;;;4072873;29;20470;-60
2021/01/19 00:57:53;;;;;;;9.30;4.07;;;3.70;99.90;;;;;;4071481;29;20481;-59
2021/01/19 00:59:55;;;;;;;7.60;4.00;;;3.70;99.90;;;;;;4073505;29;20490;-60
2021/01/19 01:01:56;;;;;;;10.57;4.00;;;3.70;99.90;;;;;;4071132;29;20966;-60
2021/01/19 01:03:57;;;;;;;13.53;3.53;;;3.70;99.90;;;;;;4072403;29;20485;-60
2021/01/19 01:05:59;;;;;;;10.73;3.90;;;3.70;99.90;;;;;;4071853;29;20470;-60
2021/01/19 01:08:02;;;;;;;6.43;3.93;;;3.70;99.90;;;;;;4071294;29;20508;-60
2021/01/19 01:10:05;;;;;;;9.10;3.57;;;3.80;99.90;;;;;;4073638;28;20477;-60
2021/01/19 01:12:08;;;;;;;9.17;3.50;;;3.80;99.90;;;;;;4075518;29;21189;-59
2021/01/19 01:14:11;;;;;;;8.97;4.03;;;3.80;99.90;;;;;;4075499;29;20477;-60
2021/01/19 01:16:13;;;;;;;14.50;3.93;;;3.80;99.90;;;;;;4075651;29;20960;-59
2021/01/19 01:18:15;;;;;;;13.23;3.90;;;3.80;99.90;;;;;;4075575;29;21136;-60
2021/01/19 01:20:16;;;;;;;11.43;3.50;;;3.80;99.90;;;;;;4074784;29;20484;-60
2021/01/19 01:22:18;;;;;;;9.70;3.20;;;3.80;99.90;;;;;;4075696;29;20491;-60
2021/01/19 01:24:19;;;;;;;9.93;3.03;;;3.80;99.90;;;;;;4075131;29;20490;-60
2021/01/19 01:26:23;;;;;;;9.43;3.00;;;3.80;99.90;;;;;;4073591;29;20478;-60
2021/01/19 01:28:25;;;;;;;11.43;3.33;;;3.90;99.90;;;;;;4072501;29;20490;-60
2021/01/19 01:30:26;;;;;;;8.53;3.03;;;3.80;99.90;;;;;;4075123;29;20494;-60
2021/01/19 01:32:28;;;;;;;7.63;2.83;;;3.80;99.90;;;;;;4075852;29;21073;-60
2021/01/19 01:34:29;;;;;;;7.00;2.57;;;3.90;99.90;;;;;;4073625;29;20474;-60
2021/01/19 01:36:38;;;;;;;7.80;3.20;;;3.90;99.90;;;;;;4073442;29;21103;-61
2021/01/19 01:38:39;;;;;;;7.57;2.67;;;3.90;99.90;;;;;;4075245;29;20490;-60
2021/01/19 01:40:40;;;;;;;8.17;2.70;;;3.90;99.90;;;;;;4073361;29;20495;-60
2021/01/19 01:42:42;;;;;;;5.40;2.53;;;3.90;99.90;;;;;;4075352;29;20482;-60
2021/01/19 01:44:44;;;;;;;7.43;2.60;;;3.90;99.90;;;;;;4074189;29;20478;-60
2021/01/19 01:46:46;;;;;;;6.97;2.87;;;3.90;99.90;;;;;;4074573;29;20816;-60
2021/01/19 01:48:48;;;;;;;8.33;2.90;;;3.80;99.90;;;;;;4075577;29;20497;-60
2021/01/19 01:50:49;;;;;;;8.77;2.70;;;3.80;99.90;;;;;;4075442;29;20481;-60
2021/01/19 01:52:52;;;;;;;8.90;2.50;;;3.80;99.90;;;;;;4076492;29;20481;-60
2021/01/19 01:54:54;;;;;;;9.37;2.83;;;3.80;99.90;;;;;;4076514;29;20536;-60
2021/01/19 01:56:55;;;;;;;5.60;2.50;;;3.80;99.90;;;;;;4072823;29;20476;-60
2021/01/19 01:58:57;;;;;;;8.67;2.33;;;3.80;99.90;;;;;;4074671;29;20484;-60
2021/01/19 02:00:59;;;;;;;6.63;2.77;;;3.80;99.90;;;;;;4073222;29;20492;-60
2021/01/19 02:03:00;;;;;;;5.30;2.10;;;3.80;99.90;;;;;;4073170;29;20524;-60
2021/01/19 02:05:03;;;;;;;6.27;2.27;;;3.80;99.90;;;;;;4075923;29;21870;-60
2021/01/19 02:07:10;;;;;;;7.67;2.57;;;3.80;99.90;;;;;;4074046;29;20516;-60
2021/01/19 02:09:16;;;;;;;6.70;2.23;;;3.80;99.90;;;;;;4074317;29;20522;-60
2021/01/19 02:11:27;;;;;;;4.10;2.23;;;3.80;99.90;;;;;;4074813;29;20486;-59
2021/01/19 02:13:41;;;;;;;8.60;2.20;;;3.80;99.90;;;;;;4074385;29;20957;-60
2021/01/19 02:15:47;;;;;;;5.53;2.13;;;3.70;99.90;;;;;;4072366;29;20537;-60
2021/01/19 02:17:57;;;;;;;6.00;2.10;;;3.80;99.90;;;;;;4073816;29;21047;-60
2021/01/19 02:20:49;;;;;;;4.50;2.00;;;3.80;99.90;;;;;;4073858;29;20475;-60
2021/01/19 02:23:07;;;;;;;6.80;2.07;;;3.70;99.90;;;;;;4073320;29;20478;-60
2021/01/19 02:25:17;;;;;;;9.63;2.40;;;3.70;99.90;;;;;;4075036;29;20604;-60
2021/01/19 02:27:38;;;;;;;5.70;2.00;;;3.70;99.90;;;;;;4072939;29;20477;-60
2021/01/19 02:30:07;;;;;;;2.93;1.80;;;3.70;99.90;;;;;;4074865;29;20499;-60
2021/01/19 02:32:19;;;;;;;6.43;2.00;;;3.70;99.90;;;;;;4074565;29;20481;-60
2021/01/19 02:34:29;;;;;;;7.23;1.77;;;3.70;99.90;;;;;;4074465;29;20495;-60
2021/01/19 02:36:36;;;;;;;10.47;2.37;;;3.70;99.90;;;;;;4074687;29;20472;-60
2021/01/19 02:38:48;;;;;;;6.20;1.70;;;3.70;99.90;;;;;;4075276;29;20465;-59
2021/01/19 02:40:54;;;;;;;7.43;1.87;;;3.70;99.90;;;;;;4073385;29;20467;-60
2021/01/19 02:43:09;;;;;;;4.60;1.50;;;3.60;99.90;;;;;;4072465;29;20572;-61
2021/01/19 02:45:11;;;;;;;5.43;1.80;;;3.70;99.90;;;;;;4074334;29;20548;-60
2021/01/19 02:47:14;;;;;;;5.70;1.83;;;3.60;99.90;;;;;;4073425;29;20485;-60
2021/01/19 02:49:15;;;;;;;3.97;1.60;;;3.60;99.90;;;;;;4073823;29;20505;-61
2021/01/19 02:51:16;;;;;;;9.60;1.80;;;3.60;99.90;;;;;;4072634;29;20486;-64
2021/01/19 02:53:19;;;;;;;3.50;1.67;;;3.60;99.90;;;;;;4074878;29;20483;-60
2021/01/19 02:55:21;;;;;;;7.57;1.80;;;3.60;99.90;;;;;;4071638;29;20479;-60
2021/01/19 02:57:33;;;;;;;9.87;1.80;;;3.60;99.90;;;;;;4073200;29;20496;-60
2021/01/19 02:59:44;;;;;;;4.80;1.73;;;3.60;99.90;;;;;;4071658;29;20907;-60
2021/01/19 03:01:59;;;;;;;9.20;1.93;;;3.60;99.90;;;;;;4072935;29;21956;-60
2021/01/19 03:04:03;;;;;;;2.03;1.43;;;3.50;99.90;;;;;;4074537;29;20477;-61
2021/01/19 03:06:09;;;;;;;3.63;1.60;;;3.40;99.90;;;;;;4074743;29;20485;-61
2021/01/19 03:08:13;;;;;;;6.13;1.67;;;3.40;99.90;;;;;;4071390;29;20502;-61
2021/01/19 03:10:17;;;;;;;5.20;2.00;;;3.30;99.90;;;;;;4071507;29;20529;-61
2021/01/19 03:12:19;;;;;;;5.17;1.57;;;3.30;99.90;;;;;;4073317;29;20485;-60
2021/01/19 03:14:21;;;;;;;6.67;1.53;;;3.20;99.90;;;;;;4072070;29;20490;-60
2021/01/19 03:16:24;;;;;;;4.23;1.70;;;3.20;99.90;;;;;;4074660;29;20490;-60
2021/01/19 03:18:25;;;;;;;7.53;1.97;;;3.10;99.90;;;;;;4072514;29;20529;-60
2021/01/19 03:20:27;;;;;;;3.53;1.70;;;3.10;99.90;;;;;;4072849;29;21170;-61
2021/01/19 03:22:28;;;;;;;6.67;1.50;;;3.00;99.90;;;;;;4074397;29;21162;-60
2021/01/19 03:24:30;;;;;;;6.93;1.40;;;3.00;99.90;;;;;;4073659;29;20502;-61
2021/01/19 03:26:32;;;;;;;7.17;2.03;;;3.10;99.90;;;;;;4072230;29;20492;-60
2021/01/19 03:28:33;;;;;;;4.53;2.03;;;3.10;99.90;;;;;;4071234;29;20577;-60
2021/01/19 03:30:35;;;;;;;6.03;1.57;;;3.00;99.90;;;;;;4071765;29;21061;-60
2021/01/19 03:32:36;;;;;;;7.97;2.10;;;3.00;99.90;;;;;;4072457;29;20486;-61
2021/01/19 03:34:39;;;;;;;5.50;1.77;;;3.00;99.90;;;;;;4073436;29;20480;-60
2021/01/19 03:36:41;;;;;;;4.10;1.60;;;3.00;99.90;;;;;;4071148;29;20468;-60
2021/01/19 03:38:43;;;;;;;7.27;1.90;;;3.00;99.90;;;;;;4071866;29;20481;-60
2021/01/19 03:40:44;;;;;;;5.87;1.60;;;3.00;99.90;;;;;;4073347;29;20481;-60
2021/01/19 03:42:46;;;;;;;9.60;1.97;;;2.90;99.90;;;;;;4072795;29;20505;-63
2021/01/19 03:44:47;;;;;;;6.60;1.90;;;2.90;99.90;;;;;;4073192;29;20521;-61
2021/01/19 03:46:49;;;;;;;4.10;1.50;;;2.90;99.90;;;;;;4074568;29;20482;-61
2021/01/19 03:48:50;;;;;;;8.90;1.73;;;2.90;99.90;;;;;;4074919;29;20505;-61
2021/01/19 03:50:52;;;;;;;7.50;2.03;;;2.90;99.90;;;;;;4072914;29;20966;-61
2021/01/19 03:52:54;;;;;;;7.33;1.60;;;2.90;99.90;;;;;;4071855;29;20478;-60
2021/01/19 03:54:55;;;;;;;5.30;1.67;;;2.90;99.90;;;;;;4072927;29;20545;-61
2021/01/19 03:56:56;;;;;;;8.83;2.30;;;2.90;99.90;;;;;;4072946;29;20572;-61
2021/01/19 03:58:58;;;;;;;5.23;1.67;;;2.90;99.90;;;;;;4072676;29;20485;-60
2021/01/19 04:00:59;;;;;;;4.00;1.67;;;2.90;99.90;;;;;;4073374;29;20545;-60
2021/01/19 04:03:00;;;;;;;4.37;1.60;;;2.90;99.90;;;;;;4073568;29;20493;-60
2021/01/19 04:05:03;;;;;;;3.17;1.70;;;2.90;99.90;;;;;;4073057;29;20545;-60
2021/01/19 04:07:04;;;;;;;10.27;1.70;;;2.90;99.90;;;;;;4071441;29;20477;-60
2021/01/19 04:09:06;;;;;;;12.47;1.80;;;2.90;99.90;;;;;;4071976;29;21556;-60
2021/01/19 04:11:08;;;;;;;5.70;1.77;;;2.90;99.90;;;;;;4072415;29;20492;-61
2021/01/19 04:13:09;;;;;;;5.20;1.83;;;2.90;99.90;;;;;;4072712;29;20473;-60
2021/01/19 04:15:11;;;;;;;5.10;1.50;;;2.90;99.90;;;;;;4072881;29;20479;-61
2021/01/19 04:17:13;;;;;;;3.77;1.50;;;2.90;99.90;;;;;;4071457;29;20486;-60
2021/01/19 04:19:14;;;;;;;5.33;1.90;;;2.90;99.90;;;;;;4072581;29;20497;-61
2021/01/19 04:21:15;;;;;;;5.30;1.87;;;2.90;99.90;;;;;;4073149;29;20492;-60
2021/01/19 04:23:17;;;;;;;8.87;1.87;;;2.90;99.90;;;;;;4073573;29;21182;-60
2021/01/19 04:25:19;;;;;;;4.90;1.50;;;2.90;99.90;;;;;;4072085;29;20480;-61
2021/01/19 04:27:20;;;;;;;9.10;1.47;;;2.90;99.90;;;;;;4071913;29;20515;-60
2021/01/19 04:29:22;;;;;;;3.83;1.50;;;2.80;99.90;;;;;;4075315;29;20502;-60
2021/01/19 04:31:23;;;;;;;8.57;1.80;;;2.80;99.90;;;;;;4071303;29;20482;-61
2021/01/19 04:33:24;;;;;;;7.27;1.50;;;2.80;99.90;;;;;;4072876;29;20569;-60
2021/01/19 04:35:26;;;;;;;3.20;1.37;;;2.80;99.90;;;;;;4071000;29;20483;-60
2021/01/19 04:37:27;;;;;;;7.07;2.03;;;2.80;99.90;;;;;;4073515;29;21007;-60
2021/01/19 04:39:29;;;;;;;6.73;1.57;;;2.80;99.90;;;;;;4072473;29;21059;-60
2021/01/19 04:41:33;;;;;;;6.70;1.70;;;2.80;99.90;;;;;;4072671;29;20520;-60
2021/01/19 04:43:35;;;;;;;5.93;1.60;;;2.80;99.90;;;;;;4072303;29;20559;-60
2021/01/19 04:45:36;;;;;;;4.57;1.80;;;2.80;99.90;;;;;;4073425;28;20547;-60
2021/01/19 04:47:38;;;;;;;7.83;1.90;;;2.90;99.90;;;;;;4075122;29;20602;-60
2021/01/19 04:49:42;;;;;;;4.63;1.60;;;2.80;99.90;;;;;;4074948;29;20512;-60
2021/01/19 04:51:46;;;;;;;3.57;1.57;;;2.80;99.90;;;;;;4073782;29;20876;-60
2021/01/19 04:53:58;;;;;;;7.67;1.60;;;2.80;99.90;;;;;;4072559;29;20493;-62
2021/01/19 04:56:03;;;;;;;4.27;1.43;;;2.80;99.90;;;;;;4075978;29;20476;-62
2021/01/19 04:58:11;;;;;;;5.20;1.37;;;2.80;99.90;;;;;;4074691;29;20480;-60
2021/01/19 05:00:15;;;;;;;4.90;1.40;;;2.80;99.90;;;;;;4074435;29;20523;-61
2021/01/19 05:02:58;;;;;;;4.70;1.67;;;2.80;99.90;;;;;;4075474;29;20506;-60
2021/01/19 05:05:22;;;;;;;5.07;1.73;;;2.70;99.90;;;;;;4073845;29;20543;-61
2021/01/19 05:07:31;;;;;;;5.57;1.53;;;2.70;99.90;;;;;;4075551;29;20894;-61
2021/01/19 05:09:36;;;;;;;3.90;1.67;;;2.80;99.90;;;;;;4073880;29;20500;-61
2021/01/19 05:11:49;;;;;;;5.40;1.90;;;2.70;99.90;;;;;;4073938;29;20953;-61
2021/01/19 05:13:57;;;;;;;7.57;1.70;;;2.70;99.90;;;;;;4074292;29;20473;-61
2021/01/19 05:16:02;;;;;;;3.77;1.27;;;2.70;99.90;;;;;;4075418;29;20477;-61
2021/01/19 05:18:03;;;;;;;4.30;1.67;;;2.80;99.90;;;;;;4075503;29;20476;-61
2021/01/19 05:20:07;;;;;;;3.23;1.57;;;2.80;99.90;;;;;;4075842;29;20488;-61
2021/01/19 05:22:16;;;;;;;7.63;1.60;;;2.70;99.90;;;;;;4075179;29;20480;-61
2021/01/19 05:24:17;;;;;;;6.30;1.50;;;2.70;99.90;;;;;;4076452;29;20958;-61
2021/01/19 05:26:19;;;;;;;8.13;1.50;;;2.70;99.90;;;;;;4075599;29;20485;-61
2021/01/19 05:28:28;;;;;;;3.67;1.47;;;2.80;99.90;;;;;;4073825;29;20496;-61
2021/01/19 05:30:33;;;;;;;11.03;1.97;;;2.80;99.90;;;;;;4075406;29;20489;-61
2021/01/19 05:32:39;;;;;;;4.73;1.47;;;2.80;99.90;;;;;;4073666;29;20556;-61
2021/01/19 05:34:40;;;;;;;6.77;1.90;;;2.80;99.90;;;;;;4075792;29;20513;-61
2021/01/19 05:36:45;;;;;;;3.33;1.60;;;2.80;99.90;;;;;;4074802;29;20469;-60
2021/01/19 05:38:48;;;;;;;4.60;1.70;;;2.80;99.90;;;;;;4073673;29;20471;-60
2021/01/19 05:40:49;;;;;;;1.80;1.20;;;2.90;99.90;;;;;;4074273;29;20478;-61
2021/01/19 05:42:51;;;;;;;5.70;1.73;;;2.80;99.90;;;;;;4077668;29;20501;-60
2021/01/19 05:44:53;;;;;;;3.70;1.27;;;2.80;99.90;;;;;;4074504;29;20494;-60
2021/01/19 05:47:04;;;;;;;10.03;1.87;;;2.90;99.90;;;;;;4075419;29;20476;-61
2021/01/19 05:49:05;;;;;;;2.70;1.50;;;2.90;99.90;;;;;;4073816;29;20816;-60
2021/01/19 05:51:10;;;;;;;4.23;1.30;;;2.90;99.90;;;;;;4072680;29;22099;-61
2021/01/19 05:53:13;;;;;;;5.03;1.50;;;2.90;99.90;;;;;;4071539;29;20952;-61
2021/01/19 05:55:15;;;;;;;5.00;1.63;;;2.80;99.90;;;;;;4073319;29;20485;-61
2021/01/19 05:57:20;;;;;;;3.13;1.50;;;2.80;99.90;;;;;;4073538;29;20488;-61
2021/01/19 05:59:30;;;;;;;3.27;1.80;;;2.80;99.90;;;;;;4072387;29;20477;-61
2021/01/19 06:01:33;;;;;;;5.67;2.07;;;2.70;99.90;;;;;;4070897;29;20575;-61
2021/01/19 06:03:37;;;;;;;5.53;1.60;;;2.70;99.90;;;;;;4072538;29;20501;-61
2021/01/19 06:05:39;;;;;;;4.50;1.63;;;2.70;99.90;;;;;;4072055;29;20482;-61
2021/01/19 06:07:43;;;;;;;5.70;1.93;;;2.60;99.90;;;;;;4071100;29;20484;-61
2021/01/19 06:09:45;;;;;;;4.30;1.90;;;2.60;99.90;;;;;;4072588;29;20500;-60
2021/01/19 06:11:51;;;;;;;4.23;1.70;;;2.60;99.90;;;;;;4072697;29;20478;-60
2021/01/19 06:13:53;;;;;;;5.40;1.93;;;2.60;99.90;;;;;;4072555;29;20469;-60
2021/01/19 06:15:54;;;;;;;4.53;2.20;;;2.60;99.90;;;;;;4073296;29;20659;-61
2021/01/19 06:17:56;;;;;;;5.63;2.20;;;2.60;99.90;;;;;;4072622;29;20485;-63
2021/01/19 06:20:00;;;;;;;8.60;2.30;;;2.60;99.90;;;;;;4072020;29;20538;-61
2021/01/19 06:22:06;;;;;;;3.23;1.70;;;2.60;99.90;;;;;;4072127;29;20489;-60
2021/01/19 06:24:08;;;;;;;6.73;1.97;;;2.60;99.90;;;;;;4074084;29;20472;-61
2021/01/19 06:26:09;;;;;;;8.20;2.13;;;2.60;99.90;;;;;;4073967;29;20483;-61
2021/01/19 06:28:12;;;;;;;6.07;2.20;;;2.60;99.90;;;;;;4070612;29;20472;-61
2021/01/19 06:30:14;;;;;;;6.50;2.30;;;2.60;99.90;;;;;;4072046;29;20473;-60
2021/01/19 06:32:17;;;;;;;9.07;2.10;;;2.60;99.90;;;;;;4073006;29;20480;-60
2021/01/19 06:34:26;;;;;;;6.33;1.90;;;2.60;99.90;;;;;;4071261;29;20488;-60
2021/01/19 06:36:37;;;;;;;5.70;2.40;;;2.50;99.90;;;;;;4072325;29;21167;-61
2021/01/19 06:38:44;;;;;;;7.30;2.17;;;2.50;99.90;;;;;;4075138;29;20468;-60
2021/01/19 06:40:50;;;;;;;4.90;2.30;;;2.50;99.90;;;;;;4074878;29;20475;-60
2021/01/19 06:42:56;;;;;;;4.97;2.10;;;2.50;99.90;;;;;;4073282;29;20524;-60
2021/01/19 06:44:59;;;;;;;7.93;2.30;;;2.40;99.90;;;;;;4073847;29;20479;-60
2021/01/19 06:47:02;;;;;;;7.23;2.10;;;2.30;99.90;;;;;;4075114;29;20472;-60
2021/01/19 06:49:07;;;;;;;6.20;2.00;;;2.30;99.90;;;;;;4071620;29;20493;-60
2021/01/19 06:51:11;;;;;;;8.27;2.00;;;2.20;99.90;;;;;;4074707;29;20793;-60
2021/01/19 06:53:23;;;;;;;7.30;2.17;;;2.20;99.90;;;;;;4074653;29;20470;-60
2021/01/19 06:55:29;;;;;;;10.60;3.00;;;2.10;99.90;;;;;;4074104;29;20999;-60
2021/01/19 06:57:40;;;;;;;8.87;2.37;;;2.10;99.90;;;;;;4074193;29;20519;-60
2021/01/19 06:59:53;;;;;;;5.23;1.90;;;2.00;99.90;;;;;;4074194;29;20483;-60
2021/01/19 07:01:58;;;;;;;7.70;2.40;;;1.90;99.90;;;;;;4073386;29;20485;-60
2021/01/19 07:04:21;;;;;;;7.50;2.43;;;1.90;99.90;;;;;;4073750;29;20470;-61
2021/01/19 07:06:50;;;;;;;11.00;2.67;;;1.90;99.90;;;;;;4073718;29;20480;-60
2021/01/19 07:09:31;;;;;;;8.40;2.33;;;1.90;99.90;;;;;;4071883;29;20506;-61
2021/01/19 07:12:11;;;;;;;8.97;2.60;;;1.80;99.90;;;;;;4072317;29;20554;-61
2021/01/19 07:14:13;;;;;;;6.10;2.30;;;1.80;99.90;;;;;;4069215;29;20474;-60
2021/01/19 07:16:24;;;;;;;12.00;2.70;;;1.80;99.90;;;;;;4070056;29;20488;-59
2021/01/19 07:18:44;;;;;;;8.53;2.77;;;1.90;99.90;;;;;;4070352;29;20470;-65
2021/01/19 07:21:02;;;;;;;7.03;2.40;;;1.70;99.90;;;;;;4069378;29;20483;-59
2021/01/19 07:23:19;;;;;;;9.17;2.27;;;1.60;99.90;;;;;;4071746;29;20555;-60
2021/01/19 07:25:22;;;;;;;12.03;3.10;;;1.60;99.90;;;;;;4069138;29;20857;-61
2021/01/19 07:27:25;;;;;;;16.20;3.57;;;1.60;99.90;;;;;;4069304;29;20802;-60
2021/01/19 07:29:26;;;;;;;11.23;3.03;;;1.50;99.90;;;;;;4069842;29;20976;-60
2021/01/19 07:31:28;;;;;;;8.63;2.53;;;1.50;99.90;;;;;;4070422;29;20556;-60
2021/01/19 07:33:31;;;;;;;10.47;2.57;;;1.50;99.90;;;;;;4071256;29;20485;-61
2021/01/19 07:35:36;;;;;;;6.67;2.70;;;1.40;99.90;;;;;;4069634;29;20471;-61
2021/01/19 07:37:39;;;;;;;8.47;2.67;;;1.40;99.90;;;;;;4070134;29;20473;-60
2021/01/19 07:39:40;;;;;;;7.87;2.40;;;1.40;99.90;;;;;;4068118;29;20467;-60
2021/01/19 07:41:43;;;;;;;8.33;2.83;;;1.40;99.90;;;;;;4068648;29;20486;-61
2021/01/19 07:43:44;;;;;;;10.03;3.20;;;1.40;99.90;;;;;;4071569;29;20535;-61
2021/01/19 07:45:54;;;;;;;6.03;2.67;;;1.40;99.90;;;;;;4071412;29;20516;-61
2021/01/19 07:48:05;;;;;;;7.40;2.80;;;1.40;99.90;;;;;;4069134;29;20473;-61
2021/01/19 07:50:10;;;;;;;5.97;2.33;;;1.40;99.90;;;;;;4068131;29;20490;-61
2021/01/19 07:52:14;;;;;;;5.87;2.43;;;1.30;99.90;;;;;;4069086;29;20586;-61
2021/01/19 07:54:27;;;;;;;5.93;2.37;;;1.30;99.90;;;;;;4072229;29;21258;-61
2021/01/19 07:56:30;;;;;;;5.93;2.60;;;1.40;99.90;;;;;;4069386;29;20812;-62
2021/01/19 07:58:38;;;;;;;8.03;2.50;;;1.30;99.90;;;;;;4070060;29;20490;-62
2021/01/19 08:00:39;;;;;;;9.25;2.75;;;1.30;99.90;;;;;;4070538;29;20479;-62
2021/01/19 08:02:41;;;;;;;7.10;3.17;;;1.40;99.90;;;;;;4069203;29;20472;-62
2021/01/19 08:04:43;;;;;;;7.10;2.97;;;1.40;99.90;;;;;;4069140;29;20219;-62
2021/01/19 08:06:44;;;;;;;8.25;3.55;;;1.40;99.90;;;;;;4069009;29;20506;-63
2021/01/19 08:08:45;;;;;;;6.77;2.50;;;1.50;99.90;;;;;;4070075;29;20251;-63
2021/01/19 08:10:54;;;;;;;9.23;2.43;;;1.50;99.90;;;;;;4067849;29;20487;-63
2021/01/19 08:12:57;;;;;;;5.40;2.37;;;1.50;99.90;;;;;;4069788;29;20471;-63
2021/01/19 08:15:04;;;;;;;5.13;2.60;;;1.40;99.90;;;;;;4068511;29;20486;-64
2021/01/19 08:17:05;;;;;;;5.57;2.30;;;1.40;99.90;;;;;;4069212;29;20492;-63
2021/01/19 08:19:10;;;;;;;4.13;2.10;;;1.40;99.90;;;;;;4067634;28;20469;-64
2021/01/19 08:21:12;;;;;;;6.80;2.70;;;1.40;99.90;;;;;;4071749;29;20506;-64
2021/01/19 08:23:16;;;;;;;6.07;2.43;;;1.40;99.90;;;;;;4068175;29;20583;-65
2021/01/19 08:25:28;;;;;;;4.43;2.30;;;1.40;99.90;;;;;;4067951;29;20517;-64
2021/01/19 08:27:30;;;;;;;7.68;3.22;;;1.30;99.90;;;;;;4069157;29;20525;-65
2021/01/19 08:29:31;;;;;;;7.13;3.00;;;1.40;99.90;;;;;;4069069;29;20238;-64
2021/01/19 08:31:36;;;;;;;7.70;2.53;;;1.40;99.90;;;;;;4067966;29;20487;-64
2021/01/19 08:33:40;;;;;;;5.63;3.20;;;1.40;99.90;;;;;;4068429;29;20463;-64
2021/01/19 08:35:43;;;;;;;6.23;2.70;;;1.40;99.90;;;;;;4072332;29;20231;-65
2021/01/19 08:37:52;;;;;;;8.03;2.37;;;1.40;99.90;;;;;;4072439;29;20474;-65
2021/01/19 08:39:53;;;;;;;3.10;1.90;;;1.30;99.90;;;;;;4071961;29;20791;-65
2021/01/19 08:41:56;;;;;;;4.30;2.33;;;1.30;99.90;;;;;;4067964;29;20514;-65
2021/01/19 08:43:59;;;;;;;6.00;2.60;;;1.30;99.90;;;;;;4067385;29;21280;-65
2021/01/19 08:46:02;;;;;;;4.87;2.27;;;1.30;99.90;;;;;;4069101;29;21040;-64
2021/01/19 08:48:07;;;;;;;3.27;2.20;;;1.20;99.90;;;;;;4069169;29;20487;-66
2021/01/19 08:50:15;;;;;;;7.67;2.00;;;1.30;99.90;;;;;;4069039;29;20505;-66
2021/01/19 08:52:16;;;;;;;6.67;1.73;;;1.30;99.90;;;;;;4069689;29;20507;-57
2021/01/19 08:54:18;;;;;;;4.70;1.50;;;1.30;99.90;;;;;;4068161;29;20478;-57
2021/01/19 08:56:20;;;;;;;4.43;2.00;;;1.30;99.90;;;;;;4071450;29;20732;-56
2021/01/19 08:58:21;;;;;;;6.70;2.42;;;1.30;99.90;;;;;;4068356;29;20472;-57
2021/01/19 09:00:27;;;;;;;5.10;1.80;;;1.30;99.90;;;;;;4070767;29;20216;-57
2021/01/19 09:02:30;;;;;;;4.43;1.53;;;1.30;99.90;;;;;;4070259;29;20503;-57
2021/01/19 09:04:33;;;;;;;7.33;1.70;;;1.30;99.90;;;;;;4068790;29;20514;-57
2021/01/19 09:06:34;;;;;;;4.13;1.60;;;1.30;99.90;;;;;;4067881;29;20477;-57
2021/01/19 09:08:38;;;;;;;7.40;2.00;;;1.40;99.90;;;;;;4067677;29;20476;-57
2021/01/19 09:10:40;;;;;;;2.33;1.53;;;1.40;99.90;;;;;;4065024;29;20475;-57
2021/01/19 09:12:41;;;;;;;5.90;1.57;;;1.40;99.90;;;;;;4066491;29;20529;-57
2021/01/19 09:14:48;;;;;;;5.95;2.05;;;1.40;99.90;;;;;;4067280;29;20475;-57
2021/01/19 09:16:50;;;;;;;5.97;1.90;;;1.50;99.90;;;;;;4069356;29;20491;-57
2021/01/19 09:18:55;;;;;;;5.67;1.80;;;1.50;99.90;;;;;;4068028;29;20212;-57
2021/01/19 09:21:06;;;;;;;5.83;1.93;;;1.60;99.90;;;;;;4067638;29;20490;-57
2021/01/19 09:23:09;;;;;;;8.00;2.47;;;1.60;99.90;;;;;;4065653;29;20501;-57
2021/01/19 09:25:12;;;;;;;5.40;2.30;;;1.70;99.90;;;;;;4063785;29;21091;-57
2021/01/19 09:27:18;;;;;;;5.72;2.50;;;1.70;99.90;;;;;;4065638;29;20473;-58
2021/01/19 09:29:22;;;;;;;10.67;2.27;;;1.80;99.90;;;;;;4064533;29;20281;-58
2021/01/19 09:31:25;;;;;;;5.22;2.40;;;1.80;99.90;;;;;;4068135;29;20460;-57
2021/01/19 09:33:31;;;;;;;10.30;3.83;;;1.80;99.90;;;;;;4072669;29;20218;-57
2021/01/19 09:35:33;;;;;;;7.38;3.75;;;1.70;99.90;;;;;;4069775;29;20884;-57
2021/01/19 09:37:35;;;;;;;7.37;2.60;;;1.80;99.90;;;;;;4069073;29;20218;-56
2021/01/19 09:39:40;;;;;;;5.10;2.17;;;1.70;99.90;;;;;;4070850;29;20483;-57
2021/01/19 09:41:44;;;;;;;5.57;2.40;;;1.70;99.90;;;;;;4070790;29;20910;-57
2021/01/19 09:43:47;;;;;;;6.07;2.27;;;1.70;99.90;;;;;;4070186;29;20478;-57
2021/01/19 09:45:49;;;;;;;8.10;2.73;;;1.60;99.90;;;;;;4071939;29;20481;-57
2021/01/19 09:47:51;;;;;;;7.13;2.30;;;1.60;99.90;;;;;;4071399;29;20465;-57
2021/01/19 09:49:54;;;;;;;5.90;2.63;;;1.50;99.90;;;;;;4070240;29;20512;-59
2021/01/19 09:51:55;;;;;;;6.03;2.20;;;1.50;99.90;;;;;;4070232;29;20473;-60
2021/01/19 09:53:59;;;;;;;6.78;2.72;;;1.50;99.90;;;;;;4070093;29;20475;-57
2021/01/19 09:56:01;;;;;;;7.40;2.47;;;1.50;99.90;;;;;;4071505;29;20236;-57
2021/01/19 09:58:04;;;;;;;6.93;2.90;;;1.50;99.90;;;;;;4067902;29;20490;-57
2021/01/19 10:00:08;;;;;;;9.00;2.67;;;1.50;99.90;;;;;;4067430;29;20486;-57
2021/01/19 10:02:10;;;;;;;10.20;3.17;;;1.50;99.90;;;;;;4048730;29;620049;-58
2021/01/19 10:04:18;;;;;;;6.37;2.50;;;1.60;99.90;;;;;;4072633;29;20513;-58
2021/01/19 10:06:21;;;;;;;9.90;3.42;;;1.60;99.90;;;;;;4069197;29;20466;-58
2021/01/19 10:08:24;;;;;;;6.68;2.70;;;1.60;99.90;;;;;;4071676;29;20548;-57
2021/01/19 10:10:33;;;;;;;9.33;2.40;;;1.60;99.90;;;;;;4069619;29;20238;-58
2021/01/19 10:12:34;;;;;;;5.90;3.03;;;1.60;99.90;;;;;;4070598;29;20463;-58
2021/01/19 10:14:37;;;;;;;6.47;2.40;;;1.60;99.90;;;;;;4070856;29;20235;-57
2021/01/19 10:16:44;;;;;;;6.30;2.20;;;1.60;99.90;;;;;;4068540;29;22299;-58
2021/01/19 10:18:49;;;;;;;5.60;2.20;;;1.60;99.90;;;;;;4070759;29;20470;-57
2021/01/19 10:20:50;;;;;;;6.97;2.50;;;1.50;99.90;;;;;;4070935;29;20490;-58
2021/01/19 10:22:57;;;;;;;5.13;2.60;;;1.50;99.90;;;;;;4073305;29;20474;-58
2021/01/19 10:24:58;;;;;;;9.60;2.88;;;1.40;99.90;;;;;;4071918;29;20529;-57
2021/01/19 10:27:02;;;;;;;6.05;3.03;;;1.50;99.90;;;;;;4070453;29;20466;-57
2021/01/19 10:29:04;;;;;;;4.10;2.35;;;1.50;99.90;;;;;;4068577;29;20467;-57
2021/01/19 10:31:16;;;;;;;5.25;2.70;;;1.60;99.90;;;;;;4067962;29;20470;-58
2021/01/19 10:33:27;;;;;;;5.70;2.90;;;1.60;99.90;;;;;;4071705;29;21100;-58
2021/01/19 10:35:31;;;;;;;4.47;1.90;;;1.70;99.90;;;;;;4071542;29;20216;-58
2021/01/19 10:37:35;;;;;;;3.23;1.60;;;1.70;99.90;;;;;;4070877;29;21330;-59
2021/01/19 10:39:46;;;;;;;3.67;1.93;;;1.70;99.90;;;;;;4069200;29;20507;-59
2021/01/19 10:41:48;;;;;;;4.73;1.60;;;1.70;99.90;;;;;;4070081;29;20520;-58
2021/01/19 10:43:53;;;;;;;4.50;1.63;;;1.70;99.90;;;;;;4070028;29;20479;-58
2021/01/19 10:45:54;;;;;;;3.88;1.85;;;1.60;99.90;;;;;;4067651;29;20934;-58
2021/01/19 10:47:58;;;;;;;3.37;1.50;;;1.60;99.90;;;;;;4070233;29;20379;-57
2021/01/19 10:50:11;;;;;;;4.00;1.90;;;1.60;99.90;;;;;;4070082;29;20475;-58
2021/01/19 10:52:12;;;;;;;4.35;2.20;;;1.60;99.90;;;;;;4071966;29;20469;-57
2021/01/19 10:54:16;;;;;;;4.33;1.70;;;1.60;99.90;;;;;;4070289;29;20255;-57
2021/01/19 10:56:17;;;;;;;3.70;1.33;;;1.60;99.90;;;;;;4072045;29;20887;-58